createdAt,value
2022-09-14T00:01:40.500Z,3.07
2022-09-14T00:04:17.227Z,2.77
2022-09-14T00:06:46.436Z,2.47
2022-09-14T00:09:22.675Z,2.37
2022-09-14T00:11:51.546Z,2.53
2022-09-14T00:14:20.166Z,2.30
2022-09-14T00:16:48.619Z,2.40
2022-09-14T00:19:24.721Z,1.93
2022-09-14T00:21:54.636Z,2.47
2022-09-14T00:24:23.585Z,1.93
2022-09-14T00:26:52.403Z,1.53
2022-09-14T00:29:20.971Z,2.87
2022-09-14T00:31:49.431Z,2.27
2022-09-14T00:34:18.073Z,1.70
2022-09-14T00:36:47.692Z,2.37
2022-09-14T00:39:16.584Z,2.13
2022-09-14T00:41:45.870Z,2.53
2022-09-14T00:44:13.982Z,3.13
2022-09-14T00:46:45.786Z,1.93
2022-09-14T00:49:21.112Z,1.87
2022-09-14T00:52:09.125Z,2.37
2022-09-14T00:54:44.704Z,2.43
2022-09-14T00:57:13.064Z,2.80
2022-09-14T00:59:42.285Z,3.17
2022-09-14T01:02:12.230Z,2.10
2022-09-14T01:04:40.874Z,2.80
2022-09-14T01:07:59.713Z,2.33
2022-09-14T01:11:04.959Z,2.30
2022-09-14T01:13:41.771Z,2.27
2022-09-14T01:16:49.940Z,2.50
2022-09-14T01:19:51.480Z,4.17
2022-09-14T01:22:24.265Z,2.50
2022-09-14T01:24:54.635Z,2.37
2022-09-14T01:27:24.827Z,2.63
2022-09-14T01:29:58.559Z,2.43
2022-09-14T01:32:29.491Z,1.90
2022-09-14T01:35:17.875Z,1.73
2022-09-14T01:38:05.695Z,2.20
2022-09-14T01:40:44.395Z,2.30
2022-09-14T01:43:17.035Z,2.00
2022-09-14T01:45:51.377Z,4.17
2022-09-14T01:48:24.240Z,3.97
2022-09-14T01:50:55.071Z,2.00
2022-09-14T01:53:34.917Z,2.23
2022-09-14T01:56:20.706Z,1.80
2022-09-14T01:59:12.799Z,1.90
2022-09-14T02:01:48.500Z,1.90
2022-09-14T02:04:24.055Z,2.03
2022-09-14T02:06:52.375Z,1.80
2022-09-14T02:09:22.613Z,2.00
2022-09-14T02:11:51.159Z,1.87
2022-09-14T02:14:19.298Z,2.10
2022-09-14T02:16:47.660Z,1.70
2022-09-14T02:19:18.377Z,3.37
2022-09-14T02:21:50.099Z,2.07
2022-09-14T02:24:18.383Z,2.10
2022-09-14T02:26:47.877Z,2.30
2022-09-14T02:29:16.039Z,2.63
2022-09-14T02:31:50.489Z,2.20
2022-09-14T02:34:30.476Z,2.20
2022-09-14T02:37:11.394Z,1.90
2022-09-14T02:40:09.185Z,2.10
2022-09-14T02:42:48.416Z,2.10
2022-09-14T02:45:26.914Z,2.50
2022-09-14T02:48:01.247Z,2.00
2022-09-14T02:50:40.577Z,3.50
2022-09-14T02:53:22.061Z,2.20
2022-09-14T02:55:53.067Z,2.33
2022-09-14T02:58:22.013Z,2.53
2022-09-14T03:00:50.883Z,2.53
2022-09-14T03:03:21.062Z,3.20
2022-09-14T03:05:49.355Z,2.70
2022-09-14T03:08:17.683Z,2.27
2022-09-14T03:10:45.861Z,2.17
2022-09-14T03:13:14.164Z,2.80
2022-09-14T03:15:42.400Z,2.43
2022-09-14T03:18:14.577Z,3.03
2022-09-14T03:20:43.075Z,2.43
2022-09-14T03:23:11.758Z,2.40
2022-09-14T03:25:43.761Z,2.50
2022-09-14T03:28:12.658Z,2.20
2022-09-14T03:30:41.008Z,3.70
2022-09-14T03:33:09.317Z,4.10
2022-09-14T03:35:37.621Z,2.60
2022-09-14T03:38:05.911Z,2.70
2022-09-14T03:40:34.303Z,2.70
2022-09-14T03:43:02.603Z,3.10
2022-09-14T03:45:31.431Z,2.90
2022-09-14T03:48:00.282Z,2.57
2022-09-14T03:50:28.517Z,2.93
2022-09-14T03:52:56.810Z,2.60
2022-09-14T03:55:25.108Z,2.70
2022-09-14T03:57:56.212Z,3.53
2022-09-14T04:00:24.606Z,3.40
2022-09-14T04:02:52.929Z,2.60
2022-09-14T04:05:21.983Z,2.70
2022-09-14T04:07:50.472Z,7.10
2022-09-14T04:10:19.291Z,6.50
2022-09-14T04:12:48.159Z,6.07
2022-09-14T04:15:17.155Z,5.43
2022-09-14T04:17:45.493Z,7.23
2022-09-14T04:20:13.950Z,5.47
2022-09-14T04:22:42.324Z,5.90
2022-09-14T04:25:11.121Z,5.47
2022-09-14T04:27:39.497Z,5.93
2022-09-14T04:30:08.217Z,7.13
2022-09-14T04:32:36.483Z,6.87
2022-09-14T04:35:04.967Z,3.87
2022-09-14T04:37:33.322Z,4.67
2022-09-14T04:40:01.865Z,7.57
2022-09-14T04:42:31.236Z,4.07
2022-09-14T04:45:00.858Z,5.63
2022-09-14T04:47:30.059Z,4.40
2022-09-14T04:49:59.067Z,5.30
2022-09-14T04:52:27.834Z,4.80
2022-09-14T04:54:56.833Z,5.30
2022-09-14T04:57:26.143Z,5.00
2022-09-14T04:59:54.491Z,4.73
2022-09-14T05:02:22.940Z,8.80
2022-09-14T05:04:51.459Z,6.93
2022-09-14T05:07:19.787Z,9.17
2022-09-14T05:09:48.050Z,8.33
2022-09-14T05:12:16.450Z,15.23
2022-09-14T05:14:44.761Z,6.77
2022-09-14T05:17:13.420Z,13.67
2022-09-14T05:19:41.713Z,7.33
2022-09-14T05:22:10.092Z,9.20
2022-09-14T05:24:38.961Z,11.90
2022-09-14T05:27:07.192Z,6.87
2022-09-14T05:29:36.442Z,7.00
2022-09-14T05:32:05.477Z,5.87
2022-09-14T05:34:33.870Z,7.33
2022-09-14T05:37:02.803Z,7.23
2022-09-14T05:39:32.625Z,4.83
2022-09-14T05:42:01.080Z,5.33
2022-09-14T05:44:29.433Z,5.50
2022-09-14T05:46:57.621Z,5.80
2022-09-14T05:49:25.940Z,6.90
2022-09-14T05:51:54.228Z,6.37
2022-09-14T05:54:22.541Z,7.90
2022-09-14T05:56:50.847Z,4.90
2022-09-14T05:59:19.216Z,5.80
2022-09-14T06:01:47.661Z,6.37
2022-09-14T06:04:16.623Z,5.93
2022-09-14T06:06:56.164Z,5.20
2022-09-14T06:09:33.490Z,5.83
2022-09-14T06:12:01.944Z,6.57
2022-09-14T06:14:30.329Z,6.17
2022-09-14T06:17:00.640Z,6.70
2022-09-14T06:19:29.596Z,5.00
2022-09-14T06:21:59.070Z,5.93
2022-09-14T06:24:27.915Z,6.07
2022-09-14T06:26:56.359Z,6.27
2022-09-14T06:29:25.028Z,5.97
2022-09-14T06:31:55.210Z,4.40
2022-09-14T06:34:23.610Z,5.30
2022-09-14T06:36:51.906Z,6.47
2022-09-14T06:39:20.229Z,6.47
2022-09-14T06:41:49.127Z,5.23
2022-09-14T06:44:20.729Z,5.67
2022-09-14T06:46:49.034Z,4.83
2022-09-14T06:49:20.906Z,4.00
2022-09-14T06:51:49.651Z,3.77
2022-09-14T06:54:18.692Z,3.83
2022-09-14T06:56:47.041Z,3.97
2022-09-14T06:59:16.327Z,2.83
2022-09-14T07:01:49.957Z,2.40
2022-09-14T07:04:18.510Z,2.30
2022-09-14T07:06:48.671Z,2.60
2022-09-14T07:09:18.067Z,2.40
2022-09-14T07:11:46.511Z,2.43
2022-09-14T07:14:15.497Z,2.60
2022-09-14T07:16:43.785Z,3.50
2022-09-14T07:19:13.147Z,4.43
2022-09-14T07:21:42.183Z,3.43
2022-09-14T07:24:15.293Z,5.90
2022-09-14T07:26:43.672Z,2.90
2022-09-14T07:29:16.996Z,3.43
2022-09-14T07:31:47.342Z,3.55
2022-09-14T07:34:15.857Z,3.70
2022-09-14T07:36:44.560Z,4.22
2022-09-14T07:39:15.646Z,3.40
2022-09-14T07:41:44.780Z,2.92
2022-09-14T07:44:17.122Z,2.47
2022-09-14T07:46:45.831Z,2.85
2022-09-14T07:49:14.352Z,1.90
2022-09-14T07:51:43.301Z,2.70
2022-09-14T07:54:13.853Z,2.15
2022-09-14T07:56:43.736Z,2.20
2022-09-14T08:02:02.190Z,2.17
2022-09-14T08:04:30.668Z,2.95
2022-09-14T08:06:59.215Z,1.83
2022-09-14T08:09:28.008Z,4.15
2022-09-14T08:11:56.399Z,1.85
2022-09-14T08:14:25.406Z,1.55
2022-09-14T08:16:54.471Z,1.60
2022-09-14T08:19:22.974Z,1.58
2022-09-14T08:21:52.336Z,1.42
2022-09-14T08:24:21.399Z,1.70
2022-09-14T08:26:49.887Z,1.65
2022-09-14T08:29:18.839Z,1.92
2022-09-14T08:31:47.514Z,1.80
2022-09-14T08:34:16.733Z,1.60
2022-09-14T08:36:45.734Z,1.48
2022-09-14T08:39:14.922Z,1.65
2022-09-14T08:42:00.352Z,2.50
2022-09-14T08:44:29.217Z,1.67
2022-09-14T08:47:03.115Z,1.45
2022-09-14T08:49:46.343Z,1.92
2022-09-14T08:52:25.801Z,2.00
2022-09-14T08:54:58.990Z,1.75
2022-09-14T08:57:34.298Z,1.83
2022-09-14T09:00:13.837Z,2.50
2022-09-14T09:03:01.296Z,1.90
2022-09-14T09:05:35.588Z,1.80
2022-09-14T09:08:33.757Z,1.50
2022-09-14T09:11:02.137Z,1.48
2022-09-14T09:13:32.095Z,1.88
2022-09-14T09:16:03.956Z,1.63
2022-09-14T09:19:12.752Z,1.60
2022-09-14T09:21:46.316Z,3.08
2022-09-14T09:24:36.912Z,1.52
2022-09-14T09:27:11.527Z,1.33
2022-09-14T09:29:39.871Z,1.35
2022-09-14T09:32:19.113Z,1.23
2022-09-14T09:35:24.074Z,1.90
2022-09-14T09:38:02.136Z,1.52
2022-09-14T09:40:38.400Z,1.05
2022-09-14T09:43:09.408Z,1.30
2022-09-14T09:45:48.381Z,1.77
2022-09-14T09:48:19.737Z,1.40
2022-09-14T09:51:04.876Z,1.30
2022-09-14T09:53:34.749Z,1.15
2022-09-14T09:56:03.576Z,1.20
2022-09-14T09:58:39.324Z,1.05
2022-09-14T10:01:29.999Z,1.20
2022-09-14T10:04:21.543Z,1.10
2022-09-14T10:06:51.605Z,1.27
2022-09-14T10:09:21.980Z,1.25
2022-09-14T10:11:58.741Z,1.38
2022-09-14T10:14:34.741Z,1.13
2022-09-14T10:17:20.502Z,1.23
2022-09-14T10:19:50.052Z,1.15
2022-09-14T10:22:31.392Z,1.30
2022-09-14T10:25:24.716Z,1.13
2022-09-14T10:27:55.896Z,0.88
2022-09-14T10:30:38.509Z,1.20
2022-09-14T10:33:10.635Z,1.17
2022-09-14T10:35:57.770Z,2.25
2022-09-14T10:38:31.442Z,1.05
2022-09-14T10:41:24.651Z,1.73
2022-09-14T10:44:08.223Z,1.30
2022-09-14T10:47:13.428Z,0.88
2022-09-14T10:50:06.229Z,1.52
2022-09-14T10:52:59.229Z,1.05
2022-09-14T10:55:55.920Z,0.98
2022-09-14T10:59:03.779Z,1.17
2022-09-14T11:02:10.096Z,1.02
2022-09-14T11:05:12.701Z,0.80
2022-09-14T11:08:00.698Z,1.98
2022-09-14T11:10:52.897Z,1.20
2022-09-14T11:13:30.165Z,0.65
2022-09-14T11:16:25.920Z,1.67
2022-09-14T11:19:26.538Z,1.55
2022-09-14T11:22:23.145Z,1.10
2022-09-14T11:25:10.910Z,1.48
2022-09-14T11:27:47.907Z,0.88
2022-09-14T11:30:31.810Z,1.25
2022-09-14T11:33:10.608Z,1.00
2022-09-14T11:35:45.261Z,1.30
2022-09-14T11:38:21.579Z,0.88
2022-09-14T11:41:15.336Z,1.00
2022-09-14T11:43:48.921Z,1.48
2022-09-14T11:46:24.610Z,1.30
2022-09-14T11:49:16.182Z,1.00
2022-09-14T11:51:53.529Z,1.58
2022-09-14T11:54:22.971Z,1.30
2022-09-14T11:57:02.553Z,1.13
2022-09-14T11:59:40.929Z,1.02
2022-09-14T12:02:25.553Z,1.08
2022-09-14T12:05:10.977Z,1.13
2022-09-14T12:07:48.044Z,0.88
2022-09-14T12:10:16.561Z,1.10
2022-09-14T12:12:45.439Z,3.92
2022-09-14T12:15:27.039Z,0.82
2022-09-14T12:18:07.274Z,1.33
2022-09-14T12:20:39.580Z,65.88
2022-09-14T12:23:16.761Z,141.18
2022-09-14T12:26:25.752Z,60.13
2022-09-14T12:28:56.445Z,15.05
2022-09-14T12:31:33.256Z,10.68
2022-09-14T12:34:20.731Z,10.15
2022-09-14T12:36:48.967Z,8.32
2022-09-14T12:39:25.322Z,5.20
2022-09-14T12:41:53.585Z,4.65
2022-09-14T12:44:43.102Z,2.55
2022-09-14T12:47:35.974Z,1.80
2022-09-14T12:50:16.369Z,1.40
2022-09-14T12:52:59.582Z,1.55
2022-09-14T12:55:52.929Z,2.15
2022-09-14T12:59:01.582Z,2.05
2022-09-14T13:01:45.570Z,1.90
2022-09-14T13:04:22.610Z,1.30
2022-09-14T13:06:53.257Z,1.40
2022-09-14T13:09:23.289Z,0.88
2022-09-14T13:12:06.472Z,0.90
2022-09-14T13:15:18.131Z,0.70
2022-09-14T13:17:57.786Z,0.80
2022-09-14T13:20:26.320Z,1.05
2022-09-14T13:22:54.775Z,1.08
2022-09-14T13:25:41.800Z,0.73
2022-09-14T13:28:19.288Z,1.88
2022-09-14T13:30:58.869Z,0.93
2022-09-14T13:33:28.361Z,0.88
2022-09-14T13:35:58.797Z,0.60
2022-09-14T13:38:31.087Z,0.70
2022-09-14T13:41:14.246Z,0.80
2022-09-14T13:43:43.730Z,0.75
2022-09-14T13:46:12.202Z,1.85
2022-09-14T13:48:41.546Z,0.80
2022-09-14T13:51:10.897Z,0.80
2022-09-14T13:53:51.105Z,1.15
2022-09-14T13:56:25.389Z,0.85
2022-09-14T13:59:09.021Z,1.85
2022-09-14T14:02:09.400Z,1.08
2022-09-14T14:04:38.765Z,0.90
2022-09-14T14:07:17.926Z,1.20
2022-09-14T14:09:51.038Z,1.30
2022-09-14T14:12:39.533Z,1.10
2022-09-14T14:15:32.233Z,1.63
2022-09-14T14:18:00.953Z,1.27
2022-09-14T14:20:38.482Z,1.25
2022-09-14T14:23:06.991Z,1.23
2022-09-14T14:26:39.524Z,1.55
2022-09-14T14:29:09.487Z,1.23
2022-09-14T14:31:38.001Z,0.90
2022-09-14T14:34:22.949Z,0.98
2022-09-14T14:36:51.570Z,0.80
2022-09-14T14:39:21.455Z,0.98
2022-09-14T14:41:57.570Z,1.30
2022-09-14T14:44:31.779Z,1.33
2022-09-14T14:47:01.155Z,1.30
2022-09-14T14:49:32.255Z,0.82
2022-09-14T14:52:00.595Z,1.08
2022-09-14T14:54:29.263Z,0.88
2022-09-14T14:56:57.644Z,1.17
2022-09-14T14:59:29.731Z,0.85
2022-09-14T15:01:58.675Z,0.80
2022-09-14T15:04:27.124Z,1.42
2022-09-14T15:06:55.610Z,0.98
2022-09-14T15:09:27.722Z,0.73
2022-09-14T15:11:57.773Z,1.42
2022-09-14T15:14:28.669Z,0.80
2022-09-14T15:17:00.484Z,1.05
2022-09-14T15:19:29.737Z,2.88
2022-09-14T15:22:01.307Z,1.05
2022-09-14T15:24:30.979Z,1.02
2022-09-14T15:26:59.907Z,0.80
2022-09-14T15:29:28.272Z,0.77
2022-09-14T15:31:56.738Z,0.90
2022-09-14T15:34:25.582Z,0.90
2022-09-14T15:36:57.011Z,1.20
2022-09-14T15:39:29.803Z,0.93
2022-09-14T15:41:58.252Z,1.15
2022-09-14T15:44:28.623Z,1.10
2022-09-14T15:46:57.332Z,1.00
2022-09-14T15:49:26.307Z,1.00
2022-09-14T15:51:56.078Z,0.90
2022-09-14T15:54:25.366Z,1.67
2022-09-14T15:56:57.038Z,1.20
2022-09-14T15:59:27.336Z,0.95
2022-09-14T16:02:06.376Z,1.25
2022-09-14T16:04:37.572Z,1.13
2022-09-14T16:07:10.059Z,1.40
2022-09-14T16:09:39.844Z,1.40
2022-09-14T16:12:10.899Z,0.90
2022-09-14T16:14:39.344Z,0.73
2022-09-14T16:17:08.956Z,0.80
2022-09-14T16:19:37.458Z,0.73
2022-09-14T16:22:06.400Z,2.17
2022-09-14T16:24:34.942Z,1.55
2022-09-14T16:27:07.728Z,1.55
2022-09-14T16:29:37.567Z,1.40
2022-09-14T16:32:10.267Z,1.45
2022-09-14T16:34:39.260Z,1.40
2022-09-14T16:37:07.526Z,1.52
2022-09-14T16:39:36.720Z,2.55
2022-09-14T16:42:05.303Z,2.22
2022-09-14T16:44:38.044Z,1.52
2022-09-14T16:47:10.231Z,1.45
2022-09-14T16:49:44.792Z,3.28
2022-09-14T16:52:16.647Z,2.90
2022-09-14T16:54:46.070Z,1.45
2022-09-14T16:57:14.678Z,2.45
2022-09-14T16:59:43.894Z,1.90
2022-09-14T17:02:12.452Z,1.23
2022-09-14T17:04:42.550Z,1.63
2022-09-14T17:07:11.463Z,0.98
2022-09-14T17:09:41.935Z,1.65
2022-09-14T17:12:10.149Z,1.15
2022-09-14T17:14:38.650Z,1.88
2022-09-14T17:17:07.126Z,1.40
2022-09-14T17:19:35.558Z,1.38
2022-09-14T17:22:04.590Z,2.15
2022-09-14T17:24:34.199Z,1.60
2022-09-14T17:27:03.413Z,2.08
2022-09-14T17:29:32.761Z,2.20
2022-09-14T17:32:01.445Z,2.30
2022-09-14T17:34:31.241Z,1.85
2022-09-14T17:37:00.402Z,1.60
2022-09-14T17:39:32.224Z,1.38
2022-09-14T17:42:02.839Z,1.30
2022-09-14T17:44:35.042Z,1.67
2022-09-14T17:47:04.958Z,2.38
2022-09-14T17:49:34.508Z,4.95
2022-09-14T17:52:04.345Z,7.95
2022-09-14T17:54:35.375Z,5.72
2022-09-14T17:57:04.086Z,14.32
2022-09-14T17:59:32.570Z,9.90
2022-09-14T18:02:04.591Z,8.75
2022-09-14T18:04:32.996Z,9.18
2022-09-14T18:07:05.418Z,8.32
2022-09-14T18:09:36.213Z,6.28
2022-09-14T18:12:06.533Z,9.52
2022-09-14T18:14:35.759Z,7.45
2022-09-14T18:17:05.885Z,7.45
2022-09-14T18:19:37.777Z,7.80
2022-09-14T18:22:09.934Z,12.73
2022-09-14T18:24:40.175Z,16.52
2022-09-14T18:27:10.909Z,16.55
2022-09-14T18:29:46.743Z,15.70
2022-09-14T18:32:17.027Z,17.13
2022-09-14T18:34:52.264Z,11.82
2022-09-14T18:37:26.418Z,12.13
2022-09-14T18:39:57.597Z,8.77
2022-09-14T18:42:31.257Z,11.20
2022-09-14T18:45:10.482Z,13.80
2022-09-14T18:47:38.905Z,10.18
2022-09-14T18:50:10.687Z,11.15
2022-09-14T18:52:41.378Z,15.50
2022-09-14T18:55:12.727Z,11.60
2022-09-14T18:57:50.878Z,11.05
2022-09-14T19:00:21.970Z,11.32
2022-09-14T19:02:55.516Z,10.88
2022-09-14T19:05:24.931Z,11.93
2022-09-14T19:08:04.597Z,18.13
2022-09-14T19:10:39.145Z,16.92
2022-09-14T19:13:11.057Z,17.38
2022-09-14T19:15:44.991Z,14.77
2022-09-14T19:18:18.828Z,14.93
2022-09-14T19:21:06.561Z,10.18
2022-09-14T19:23:39.771Z,9.00
2022-09-14T19:26:22.729Z,6.40
2022-09-14T19:28:53.969Z,7.93
2022-09-14T19:31:26.318Z,6.90
2022-09-14T19:33:56.487Z,18.42
2022-09-14T19:36:27.729Z,18.60
2022-09-14T19:39:02.374Z,18.90
2022-09-14T19:41:34.568Z,15.25
2022-09-14T19:44:06.970Z,10.27
2022-09-14T19:46:40.055Z,19.75
2022-09-14T19:49:13.829Z,21.15
2022-09-14T19:51:42.913Z,26.92
2022-09-14T19:54:14.135Z,19.90
2022-09-14T19:56:43.745Z,18.90
2022-09-14T19:59:17.235Z,21.08
2022-09-14T20:01:48.322Z,31.50
2022-09-14T20:04:23.284Z,35.88
2022-09-14T20:06:52.619Z,42.65
2022-09-14T20:09:22.579Z,40.90
2022-09-14T20:11:52.175Z,38.83
2022-09-14T20:14:23.348Z,40.67
2022-09-14T20:16:56.056Z,40.90
2022-09-14T20:19:27.885Z,27.55
2022-09-14T20:21:57.766Z,29.95
2022-09-14T20:24:28.580Z,27.90
2022-09-14T20:27:00.133Z,26.00
2022-09-14T20:29:31.273Z,22.23
2022-09-14T20:32:01.108Z,23.52
2022-09-14T20:34:31.090Z,21.55
2022-09-14T20:37:02.959Z,15.30
2022-09-14T20:39:31.477Z,16.58
2022-09-14T20:42:00.920Z,16.75
2022-09-14T20:44:29.189Z,13.18
2022-09-14T20:47:00.729Z,12.82
2022-09-14T20:49:29.369Z,16.55
2022-09-14T20:51:59.367Z,18.02
2022-09-14T20:54:27.713Z,10.75
2022-09-14T20:56:57.503Z,8.15
2022-09-14T20:59:29.416Z,16.83
2022-09-14T21:02:00.292Z,22.65
2022-09-14T21:04:32.097Z,34.15
2022-09-14T21:07:00.416Z,30.52
2022-09-14T21:09:29.586Z,24.13
2022-09-14T21:11:57.852Z,13.30
2022-09-14T21:14:28.538Z,11.35
2022-09-14T21:16:58.771Z,10.77
2022-09-14T21:19:28.061Z,15.65
2022-09-14T21:21:56.742Z,23.70
2022-09-14T21:24:25.428Z,20.27
2022-09-14T21:26:53.712Z,22.10
2022-09-14T21:29:24.098Z,37.03
2022-09-14T21:31:52.938Z,39.08
2022-09-14T21:34:21.518Z,40.42
2022-09-14T21:36:51.478Z,44.30
2022-09-14T21:39:24.330Z,29.63
2022-09-14T21:41:58.316Z,34.38
2022-09-14T21:44:35.601Z,33.38
2022-09-14T21:47:05.033Z,38.30
2022-09-14T21:49:33.349Z,45.40
2022-09-14T21:52:01.816Z,57.95
2022-09-14T21:54:30.295Z,40.22
2022-09-14T21:56:58.668Z,34.92
2022-09-14T21:59:27.476Z,26.77
2022-09-14T22:01:56.394Z,25.73
2022-09-14T22:04:25.126Z,24.63
2022-09-14T22:06:53.556Z,27.90
2022-09-14T22:09:25.378Z,16.98
2022-09-14T22:11:53.865Z,16.95
2022-09-14T22:14:25.261Z,13.82
2022-09-14T22:16:54.116Z,17.05
2022-09-14T22:19:28.432Z,20.60
2022-09-14T22:21:57.584Z,27.58
2022-09-14T22:24:37.134Z,26.10
2022-09-14T22:27:10.387Z,28.33
2022-09-14T22:29:41.054Z,26.52
2022-09-14T22:32:12.199Z,28.95
2022-09-14T22:34:42.006Z,23.30
2022-09-14T22:37:11.632Z,20.63
2022-09-14T22:39:39.939Z,20.65
2022-09-14T22:42:08.355Z,10.90
2022-09-14T22:44:36.630Z,10.30
2022-09-14T22:47:05.571Z,8.45
2022-09-14T22:49:33.924Z,9.57
2022-09-14T22:52:02.583Z,5.45
2022-09-14T22:54:31.396Z,5.53
2022-09-14T22:56:59.739Z,5.88
2022-09-14T22:59:27.981Z,6.15
2022-09-14T23:01:56.321Z,7.75
2022-09-14T23:04:24.848Z,9.52
2022-09-14T23:06:53.205Z,13.13
2022-09-14T23:09:22.286Z,13.15
2022-09-14T23:11:50.711Z,6.50
2022-09-14T23:14:18.981Z,5.68
2022-09-14T23:16:47.391Z,5.28
2022-09-14T23:19:17.376Z,4.30
2022-09-14T23:21:45.949Z,10.25
2022-09-14T23:24:14.433Z,2.67
2022-09-14T23:26:42.721Z,3.53
2022-09-14T23:29:14.418Z,4.50
2022-09-14T23:31:42.982Z,6.72
2022-09-14T23:34:11.348Z,6.50
2022-09-14T23:36:39.619Z,7.20
2022-09-14T23:39:07.993Z,8.45
2022-09-14T23:41:36.839Z,8.13
2022-09-14T23:44:05.210Z,7.53
2022-09-14T23:46:34.175Z,7.73
2022-09-14T23:49:02.528Z,5.13
2022-09-14T23:51:30.776Z,5.47
2022-09-14T23:53:59.031Z,3.67
2022-09-14T23:56:27.377Z,3.37
2022-09-14T23:58:56.533Z,3.50
